Ronco, PA (15476)

6:27 AM EST on November 28, 2014 (GMT -0500)
HillTop Rices Landing | Change Station
CLOSE
Current Station
Personal Weather Station
Location: Rices Landing, PA
Elevation: 1118 ft
Nearby Weather Stations
Active Advisory: Special Statement Active Notice: Public Information Statement

Elev 1118 ft 39.93 °N, 79.95 °W | Updated 2 seconds ago

Snow
Snow
26.2 °F
Feels Like 26 °F
N
0.0
Wind Variable Wind from SW
Gusts 5.0 mph

Today
High -- | Low -- °F
--% Chance of Precip.
Yesterday
High -- | Low -- °F
Precip. -- in
7:18 AM 4:56 PM
Waxing Crescent, 39% visible
Pressure 30.33 in
Visibility 10.0 miles
Clouds Few 2000 ft
Overcast 5000 ft
Windchill 26 °F
Dew Point 23 °F
Humidity 88%
Rainfall 0.00 in
Snow Depth Not available.
UV 0 out of 12
Pollen .10 out of 12
Air Quality Not available.
Flu Activity Not available.
METAR KMGW 281053Z AUTO 26004KT 10SM FEW020 OVC050 M03/M07 A3029 RMK AO2 SNE36 SLP270 P0000 T10281072 TSNO

More Conditions Fewer Conditions

Pressure 30.33 in
Visibility 10.0 miles
Clouds Few 2000 ft
Overcast 5000 ft
Windchill 26 °F
Dew Point 23 °F
Humidity 88%
Rainfall 0.00 in
Snow Depth Not available.
UV 0 out of 12
Pollen .10 out of 12
Air Quality Not available.
Flu Activity Not available.
METAR KMGW 281053Z AUTO 26004KT 10SM FEW020 OVC050 M03/M07 A3029 RMK AO2 SNE36 SLP270 P0000 T10281072 TSNO

More Conditions Fewer Conditions

10-Day Weather Forecast

Almanac

Astronomy

Nov. 28, 2014 Rise Set
Actual Time
Civil Twilight
Nautical Twilight
Astronomical Twilight
Moon
Length of Visible Light
Length of Day
Tomorrow will be .
, % of the Moon is Illuminated

Today's Extremes

State Highs State Lows

Community

WunderPhotos

Upload Photos

1,774,192 photos uploaded!

WunderBlogs® & News

Nearby

Air Quality

  Air Quality AQ Index Pollutant
Not available.

Snow Depth

Station Depth Elevation

Earthquake Activity

City Distance Mag. Time & Date
Minimum magnitude displayed is 2.5.

Coastal Water Temperatures

Place Temperature

Nearby Weather Stations